createdAt,value
2018-02-27T00:00:37.521Z,0
2018-02-27T00:01:36.988Z,0
2018-02-27T00:02:36.961Z,0
2018-02-27T00:03:37.194Z,0
2018-02-27T00:04:37.162Z,0
2018-02-27T00:05:36.890Z,0
2018-02-27T00:06:37.102Z,0
2018-02-27T00:07:37.103Z,0
2018-02-27T00:08:37.319Z,0
2018-02-27T00:09:37.032Z,0
2018-02-27T00:10:36.543Z,0
2018-02-27T00:11:37.232Z,0
2018-02-27T00:12:37.001Z,0
2018-02-27T00:13:36.998Z,0
2018-02-27T00:14:37.154Z,0
2018-02-27T00:15:36.686Z,0
2018-02-27T00:16:37.178Z,0
2018-02-27T00:17:37.134Z,0
2018-02-27T00:18:37.107Z,0
2018-02-27T00:19:36.351Z,0
2018-02-27T00:20:36.779Z,0
2018-02-27T00:21:36.535Z,0
2018-02-27T00:22:36.452Z,0
2018-02-27T00:23:36.976Z,0
2018-02-27T00:24:36.689Z,0
2018-02-27T00:25:36.653Z,0
2018-02-27T00:26:36.375Z,0
2018-02-27T00:27:36.620Z,0
2018-02-27T00:28:36.850Z,0
2018-02-27T00:29:36.860Z,0
2018-02-27T00:30:36.812Z,0
2018-02-27T00:31:36.349Z,0
2018-02-27T00:32:36.553Z,0
2018-02-27T00:33:36.439Z,0
2018-02-27T00:34:36.728Z,0
2018-02-27T00:35:36.450Z,0
2018-02-27T00:36:36.120Z,0
2018-02-27T00:37:36.654Z,0
2018-02-27T00:38:36.353Z,0
2018-02-27T00:39:35.781Z,0
2018-02-27T00:40:36.625Z,0
2018-02-27T00:41:36.220Z,0
2018-02-27T00:42:36.503Z,0
2018-02-27T00:43:36.170Z,0
2018-02-27T00:44:36.486Z,0
2018-02-27T00:45:36.489Z,0
2018-02-27T00:46:36.488Z,0
2018-02-27T00:47:35.544Z,0
2018-02-27T00:48:36.100Z,0
2018-02-27T00:49:35.722Z,0
2018-02-27T00:50:36.261Z,0
2018-02-27T00:51:36.245Z,0
2018-02-27T00:52:35.899Z,0
2018-02-27T00:53:35.356Z,0
2018-02-27T00:54:36.139Z,0
2018-02-27T00:55:36.120Z,0
2018-02-27T00:56:35.793Z,0
2018-02-27T00:57:35.787Z,0
2018-02-27T00:58:35.756Z,0
2018-02-27T00:59:35.469Z,0
2018-02-27T01:00:35.985Z,0
2018-02-27T01:01:35.680Z,0
2018-02-27T01:02:35.640Z,0
2018-02-27T01:03:35.103Z,0
2018-02-27T01:04:35.339Z,0
2018-02-27T01:05:35.305Z,0
2018-02-27T01:06:35.814Z,0
2018-02-27T01:07:35.255Z,0
2018-02-27T01:08:35.746Z,0
2018-02-27T01:09:35.462Z,0
2018-02-27T01:10:35.179Z,0
2018-02-27T01:11:35.405Z,0
2018-02-27T01:12:35.116Z,0
2018-02-27T01:13:35.161Z,0
2018-02-27T01:14:34.810Z,0
2018-02-27T01:15:35.040Z,0
2018-02-27T01:16:34.760Z,0
2018-02-27T01:17:35.260Z,0
2018-02-27T01:18:34.749Z,0
2018-02-27T01:19:35.190Z,0
2018-02-27T01:20:34.917Z,0
2018-02-27T01:21:35.401Z,0
2018-02-27T01:22:35.121Z,0
2018-02-27T01:23:35.346Z,0
2018-02-27T01:24:35.065Z,0
2018-02-27T01:25:34.513Z,0
2018-02-27T01:26:35.269Z,0
2018-02-27T01:27:34.988Z,0
2018-02-27T01:28:34.963Z,0
2018-02-27T01:29:34.669Z,0
2018-02-27T01:30:34.638Z,0
2018-02-27T01:31:34.621Z,0
2018-02-27T01:32:34.592Z,0
2018-02-27T01:33:34.826Z,0
2018-02-27T01:34:34.547Z,0
2018-02-27T01:35:35.034Z,0
2018-02-27T01:36:34.997Z,0
2018-02-27T01:37:34.453Z,0
2018-02-27T01:38:34.435Z,0
2018-02-27T01:39:34.925Z,0
2018-02-27T01:40:34.647Z,0
2018-02-27T01:41:34.866Z,0
2018-02-27T01:42:34.321Z,0
2018-02-27T01:43:34.555Z,0
2018-02-27T01:44:34.524Z,0
2018-02-27T01:45:34.774Z,0
2018-02-27T01:46:34.472Z,0
2018-02-27T01:47:33.941Z,0
2018-02-27T01:48:34.164Z,0
2018-02-27T01:49:34.393Z,0
2018-02-27T01:50:34.371Z,0
2018-02-27T01:51:34.600Z,0
2018-02-27T01:52:34.065Z,0
2018-02-27T01:53:34.024Z,0
2018-02-27T01:54:34.009Z,0
2018-02-27T01:55:34.497Z,0
2018-02-27T01:56:34.463Z,0
2018-02-27T01:57:33.915Z,0
2018-02-27T01:58:33.891Z,0
2018-02-27T01:59:34.134Z,0
2018-02-27T02:00:33.845Z,0
2018-02-27T02:01:34.072Z,0
2018-02-27T02:02:33.797Z,0
2018-02-27T02:03:34.016Z,0
2018-02-27T02:04:33.993Z,0
2018-02-27T02:05:33.717Z,0
2018-02-27T02:06:33.935Z,0
2018-02-27T02:07:34.175Z,0
2018-02-27T02:08:33.890Z,0
2018-02-27T02:09:33.349Z,0
2018-02-27T02:10:33.584Z,0
2018-02-27T02:11:33.818Z,0
2018-02-27T02:12:33.782Z,0
2018-02-27T02:13:33.496Z,0
2018-02-27T02:14:33.725Z,0
2018-02-27T02:15:33.712Z,0
2018-02-27T02:16:33.681Z,0
2018-02-27T02:17:33.395Z,0
2018-02-27T02:18:33.682Z,0
2018-02-27T02:19:32.819Z,0
2018-02-27T02:20:33.314Z,0
2018-02-27T02:21:33.818Z,0
2018-02-27T02:22:33.259Z,0
2018-02-27T02:23:33.237Z,0
2018-02-27T02:24:33.210Z,0
2018-02-27T02:25:33.189Z,0
2018-02-27T02:26:33.155Z,0
2018-02-27T02:27:33.136Z,0
2018-02-27T02:28:33.356Z,0
2018-02-27T02:29:33.597Z,0
2018-02-27T02:30:33.626Z,0
2018-02-27T02:31:33.344Z,0
2018-02-27T02:32:33.600Z,0
2018-02-27T02:33:33.496Z,0
2018-02-27T02:34:33.212Z,0
2018-02-27T02:35:33.184Z,0
2018-02-27T02:36:33.159Z,0
2018-02-27T02:37:33.391Z,0
2018-02-27T02:38:33.367Z,0
2018-02-27T02:39:33.090Z,0
2018-02-27T02:40:32.796Z,0
2018-02-27T02:41:33.019Z,0
2018-02-27T02:42:33.264Z,0
2018-02-27T02:43:33.232Z,0
2018-02-27T02:44:32.689Z,0
2018-02-27T02:45:33.173Z,0
2018-02-27T02:46:32.899Z,0
2018-02-27T02:47:32.349Z,0
2018-02-27T02:48:32.839Z,0
2018-02-27T02:49:32.293Z,0
2018-02-27T02:50:33.039Z,0
2018-02-27T02:51:32.764Z,0
2018-02-27T02:52:32.727Z,0
2018-02-27T02:53:32.446Z,0
2018-02-27T02:54:32.685Z,0
2018-02-27T02:55:32.648Z,0
2018-02-27T02:56:32.630Z,0
2018-02-27T02:57:32.600Z,0
2018-02-27T02:58:32.322Z,0
2018-02-27T02:59:32.344Z,0
2018-02-27T03:00:32.530Z,0
2018-02-27T03:01:32.498Z,0
2018-02-27T03:02:32.734Z,0
2018-02-27T03:03:32.703Z,0
2018-02-27T03:04:32.676Z,0
2018-02-27T03:05:32.138Z,0
2018-02-27T03:06:32.625Z,0
2018-02-27T03:07:32.339Z,0
2018-02-27T03:08:32.576Z,0
2018-02-27T03:09:32.295Z,0
2018-02-27T03:10:32.251Z,0
2018-02-27T03:11:32.232Z,0
2018-02-27T03:12:32.469Z,0
2018-02-27T03:13:32.441Z,0
2018-02-27T03:14:31.898Z,0
2018-02-27T03:15:32.382Z,0
2018-02-27T03:16:32.098Z,0
2018-02-27T03:17:32.078Z,0
2018-02-27T03:18:31.791Z,0
2018-02-27T03:19:32.072Z,0
2018-02-27T03:20:32.000Z,0
2018-02-27T03:21:31.983Z,0
2018-02-27T03:22:31.949Z,0
2018-02-27T03:23:32.183Z,0
2018-02-27T03:24:32.168Z,0
2018-02-27T03:25:31.877Z,0
2018-02-27T03:26:32.095Z,0
2018-02-27T03:27:31.297Z,0
2018-02-27T03:28:31.791Z,0
2018-02-27T03:29:31.761Z,0
2018-02-27T03:30:31.752Z,0
2018-02-27T03:31:31.453Z,0
2018-02-27T03:32:31.688Z,0
2018-02-27T03:33:31.654Z,0
2018-02-27T03:34:31.640Z,0
2018-02-27T03:35:31.603Z,0
2018-02-27T03:36:31.316Z,0
2018-02-27T03:37:31.288Z,0
2018-02-27T03:38:31.523Z,0
2018-02-27T03:39:31.756Z,0
2018-02-27T03:40:31.734Z,0
2018-02-27T03:41:31.442Z,0
2018-02-27T03:42:31.424Z,0
2018-02-27T03:43:31.409Z,0
2018-02-27T03:44:31.368Z,0
2018-02-27T03:45:31.610Z,0
2018-02-27T03:46:31.315Z,0
2018-02-27T03:47:30.776Z,0
2018-02-27T03:48:31.266Z,0
2018-02-27T03:49:30.718Z,0
2018-02-27T03:50:30.959Z,0
2018-02-27T03:51:31.446Z,0
2018-02-27T03:52:30.685Z,0
2018-02-27T03:53:31.138Z,0
2018-02-27T03:54:30.849Z,0
2018-02-27T03:55:31.079Z,0
2018-02-27T03:56:30.796Z,0
2018-02-27T03:57:30.775Z,0
2018-02-27T03:58:30.999Z,0
2018-02-27T03:59:30.975Z,0
2018-02-27T04:00:30.943Z,0
2018-02-27T04:01:31.183Z,0
2018-02-27T04:02:30.898Z,0
2018-02-27T04:03:31.127Z,0
2018-02-27T04:04:30.583Z,0
2018-02-27T04:05:31.075Z,0
2018-02-27T04:06:31.043Z,0
2018-02-27T04:07:30.759Z,0
2018-02-27T04:08:31.010Z,0
2018-02-27T04:09:30.460Z,0
2018-02-27T04:10:30.978Z,0
2018-02-27T04:11:30.656Z,0
2018-02-27T04:12:30.369Z,0
2018-02-27T04:13:30.876Z,0
2018-02-27T04:14:30.575Z,0
2018-02-27T04:15:30.820Z,0
2018-02-27T04:16:30.525Z,0
2018-02-27T04:17:30.498Z,0
2018-02-27T04:18:30.477Z,0
2018-02-27T04:19:30.185Z,0
2018-02-27T04:20:30.416Z,0
2018-02-27T04:21:30.644Z,0
2018-02-27T04:22:30.361Z,0
2018-02-27T04:23:30.073Z,0
2018-02-27T04:24:30.575Z,0
2018-02-27T04:25:30.298Z,0
2018-02-27T04:26:30.253Z,0
2018-02-27T04:27:30.234Z,0
2018-02-27T04:28:30.205Z,0
2018-02-27T04:29:30.487Z,0
2018-02-27T04:30:30.149Z,0
2018-02-27T04:31:29.862Z,0
2018-02-27T04:32:30.092Z,0
2018-02-27T04:33:29.555Z,0
2018-02-27T04:34:29.781Z,0
2018-02-27T04:35:30.018Z,0
2018-02-27T04:36:30.257Z,0
2018-02-27T04:37:29.983Z,0
2018-02-27T04:38:29.681Z,0
2018-02-27T04:39:29.913Z,0
2018-02-27T04:40:30.151Z,0
2018-02-27T04:41:30.118Z,0
2018-02-27T04:42:29.830Z,0
2018-02-27T04:43:30.065Z,0
2018-02-27T04:44:29.551Z,0
2018-02-27T04:45:30.015Z,0
2018-02-27T04:46:29.728Z,0
2018-02-27T04:47:29.957Z,0
2018-02-27T04:48:29.150Z,0
2018-02-27T04:49:29.397Z,0
2018-02-27T04:50:29.099Z,0
2018-02-27T04:51:29.333Z,0
2018-02-27T04:52:29.300Z,0
2018-02-27T04:53:29.289Z,0
2018-02-27T04:54:29.765Z,0
2018-02-27T04:55:29.494Z,0
2018-02-27T04:56:29.716Z,0
2018-02-27T04:57:29.426Z,0
2018-02-27T04:58:29.142Z,0
2018-02-27T04:59:29.643Z,0
2018-02-27T05:00:28.834Z,0
2018-02-27T05:01:29.069Z,0
2018-02-27T05:02:29.038Z,0
2018-02-27T05:03:29.529Z,0
2018-02-27T05:04:29.500Z,0
2018-02-27T05:05:29.476Z,0
2018-02-27T05:06:28.929Z,0
2018-02-27T05:07:28.894Z,0
2018-02-27T05:08:29.144Z,0
2018-02-27T05:09:29.112Z,0
2018-02-27T05:10:29.080Z,0
2018-02-27T05:11:29.310Z,0
2018-02-27T05:12:29.287Z,0
2018-02-27T05:13:28.740Z,0
2018-02-27T05:14:28.459Z,0
2018-02-27T05:15:28.947Z,0
2018-02-27T05:16:28.716Z,0
2018-02-27T05:17:29.162Z,0
2018-02-27T05:18:28.869Z,0
2018-02-27T05:19:28.836Z,0
2018-02-27T05:20:28.816Z,0
2018-02-27T05:21:28.782Z,0
2018-02-27T05:22:29.016Z,0
2018-02-27T05:23:28.989Z,0
2018-02-27T05:24:28.196Z,0
2018-02-27T05:25:28.417Z,0
2018-02-27T05:26:28.647Z,0
2018-02-27T05:27:28.883Z,0
2018-02-27T05:28:28.081Z,0
2018-02-27T05:29:28.834Z,0
2018-02-27T05:30:28.806Z,0
2018-02-27T05:31:28.782Z,0
2018-02-27T05:32:28.762Z,0
2018-02-27T05:33:28.472Z,0
2018-02-27T05:34:28.183Z,0
2018-02-27T05:35:28.410Z,0
2018-02-27T05:36:28.385Z,0
2018-02-27T05:37:28.105Z,0
2018-02-27T05:38:28.076Z,0
2018-02-27T05:39:28.043Z,0
2018-02-27T05:40:28.320Z,0
2018-02-27T05:41:28.256Z,0
2018-02-27T05:42:28.479Z,0
2018-02-27T05:43:28.461Z,0
2018-02-27T05:44:28.175Z,0
2018-02-27T05:45:28.142Z,0
2018-02-27T05:46:28.118Z,0
2018-02-27T05:47:28.349Z,0
2018-02-27T05:48:28.321Z,0
2018-02-27T05:49:28.344Z,0
2018-02-27T05:50:28.015Z,0
2018-02-27T05:51:27.724Z,0
2018-02-27T05:52:27.955Z,0
2018-02-27T05:53:27.674Z,0
2018-02-27T05:54:27.644Z,0
2018-02-27T05:55:28.130Z,0
2018-02-27T05:56:27.849Z,5
2018-02-27T05:57:27.833Z,5
2018-02-27T05:58:27.539Z,5
2018-02-27T05:59:27.509Z,5
2018-02-27T06:00:27.232Z,5
2018-02-27T06:01:27.722Z,5
2018-02-27T06:02:27.952Z,5
2018-02-27T06:03:27.663Z,5
2018-02-27T06:04:27.685Z,10
2018-02-27T06:05:27.615Z,10
2018-02-27T06:06:27.070Z,10
2018-02-27T06:07:27.287Z,10
2018-02-27T06:08:27.271Z,10
2018-02-27T06:09:26.726Z,10
2018-02-27T06:10:26.959Z,10
2018-02-27T06:11:27.452Z,15
2018-02-27T06:12:27.416Z,15
2018-02-27T06:13:27.658Z,15
2018-02-27T06:14:27.372Z,15
2018-02-27T06:15:27.591Z,20
2018-02-27T06:16:27.050Z,20
2018-02-27T06:17:27.538Z,20
2018-02-27T06:18:27.254Z,20
2018-02-27T06:19:26.968Z,25
2018-02-27T06:20:27.209Z,25
2018-02-27T06:21:27.429Z,25
2018-02-27T06:22:27.154Z,25
2018-02-27T06:23:27.171Z,30
2018-02-27T06:24:26.837Z,30
2018-02-27T06:25:27.330Z,30
2018-02-27T06:26:27.304Z,30
2018-02-27T06:27:27.018Z,35
2018-02-27T06:28:27.261Z,35
2018-02-27T06:29:26.445Z,35
2018-02-27T06:30:26.950Z,40
2018-02-27T06:31:26.138Z,40
2018-02-27T06:32:26.882Z,40
2018-02-27T06:33:27.113Z,45
2018-02-27T06:34:27.082Z,45
2018-02-27T06:35:26.281Z,40
2018-02-27T06:36:27.040Z,40
2018-02-27T06:37:26.844Z,40
2018-02-27T06:38:26.983Z,40
2018-02-27T06:39:26.957Z,45
2018-02-27T06:40:26.662Z,45
2018-02-27T06:41:26.388Z,45
2018-02-27T06:42:26.613Z,45
2018-02-27T06:43:26.327Z,45
2018-02-27T06:44:26.299Z,45
2018-02-27T06:45:26.528Z,50
2018-02-27T06:46:26.766Z,50
2018-02-27T06:47:26.560Z,50
2018-02-27T06:48:26.795Z,50
2018-02-27T06:49:26.163Z,50
2018-02-27T06:50:26.399Z,50
2018-02-27T06:51:25.854Z,50
2018-02-27T06:52:26.347Z,55
2018-02-27T06:53:26.066Z,55
2018-02-27T06:54:26.561Z,55
2018-02-27T06:55:26.008Z,55
2018-02-27T06:56:26.552Z,60
2018-02-27T06:57:25.957Z,65
2018-02-27T06:58:26.442Z,65
2018-02-27T06:59:26.424Z,65
2018-02-27T07:00:26.232Z,60
2018-02-27T07:01:26.363Z,65
2018-02-27T07:02:26.076Z,60
2018-02-27T07:03:26.313Z,55
2018-02-27T07:04:26.033Z,55
2018-02-27T07:05:25.995Z,55
2018-02-27T07:06:26.376Z,55
2018-02-27T07:07:25.693Z,55
2018-02-27T07:08:25.925Z,60
2018-02-27T07:09:25.891Z,65
2018-02-27T07:10:25.975Z,75
2018-02-27T07:11:26.098Z,75
2018-02-27T07:12:25.810Z,70
2018-02-27T07:13:25.785Z,75
2018-02-27T07:14:26.020Z,85
2018-02-27T07:15:25.471Z,95
2018-02-27T07:16:25.696Z,115
2018-02-27T07:17:25.676Z,110
2018-02-27T07:18:25.917Z,110
2018-02-27T07:19:25.628Z,110
2018-02-27T07:20:25.598Z,110
2018-02-27T07:21:25.838Z,110
2018-02-27T07:22:25.545Z,100
2018-02-27T07:23:25.256Z,105
2018-02-27T07:24:25.497Z,95
2018-02-27T07:25:25.476Z,95
2018-02-27T07:26:25.700Z,100
2018-02-27T07:27:24.901Z,105
2018-02-27T07:28:25.131Z,100
2018-02-27T07:29:25.630Z,100
2018-02-27T07:30:25.613Z,105
2018-02-27T07:31:25.566Z,115
2018-02-27T07:32:25.289Z,130
2018-02-27T07:33:25.509Z,130
2018-02-27T07:34:25.497Z,125
2018-02-27T07:35:25.635Z,130
2018-02-27T07:36:24.921Z,125
2018-02-27T07:37:25.162Z,125
2018-02-27T07:38:25.128Z,140
2018-02-27T07:39:24.841Z,140
2018-02-27T07:40:25.338Z,130
2018-02-27T07:41:25.046Z,140
2018-02-27T07:42:25.020Z,125
2018-02-27T07:43:25.254Z,135
2018-02-27T07:44:25.227Z,140
2018-02-27T07:45:24.679Z,145
2018-02-27T07:46:24.927Z,160
2018-02-27T07:47:24.768Z,145
2018-02-27T07:48:24.900Z,150
2018-02-27T07:49:24.858Z,140
2018-02-27T07:50:24.829Z,135
2018-02-27T07:51:25.054Z,145
2018-02-27T07:52:25.060Z,145
2018-02-27T07:53:24.738Z,135
2018-02-27T07:54:24.719Z,120
2018-02-27T07:55:24.427Z,145
2018-02-27T07:56:24.666Z,140
2018-02-27T07:57:24.896Z,130
2018-02-27T07:58:24.605Z,145
2018-02-27T07:59:24.582Z,145
2018-02-27T08:00:24.291Z,165
2018-02-27T08:01:24.529Z,155
2018-02-27T08:02:24.761Z,150
2018-02-27T08:03:24.216Z,160
2018-02-27T08:04:24.244Z,150
2018-02-27T08:05:24.431Z,170
2018-02-27T08:06:24.397Z,170
2018-02-27T08:07:24.376Z,180
2018-02-27T08:08:24.651Z,165
2018-02-27T08:09:24.064Z,180
2018-02-27T08:10:24.288Z,190
2018-02-27T08:11:24.011Z,200
2018-02-27T08:12:24.504Z,205
2018-02-27T08:13:24.224Z,220
2018-02-27T08:14:24.194Z,270
2018-02-27T08:15:23.906Z,245
2018-02-27T08:16:24.201Z,235
2018-02-27T08:17:24.126Z,245
2018-02-27T08:18:24.087Z,205
2018-02-27T08:19:23.545Z,220
2018-02-27T08:20:23.780Z,245
2018-02-27T08:21:24.283Z,265
2018-02-27T08:22:24.243Z,270
2018-02-27T08:23:23.959Z,255
2018-02-27T08:24:24.208Z,265
2018-02-27T08:25:23.966Z,280
2018-02-27T08:26:23.882Z,270
2018-02-27T08:27:23.867Z,285
2018-02-27T08:28:23.621Z,260
2018-02-27T08:29:23.816Z,245
2018-02-27T08:30:23.524Z,220
2018-02-27T08:31:24.016Z,220
2018-02-27T08:32:23.995Z,235
2018-02-27T08:33:23.443Z,235
2018-02-27T08:34:23.680Z,225
2018-02-27T08:35:23.656Z,180
2018-02-27T08:36:23.657Z,190
2018-02-27T08:37:23.350Z,200
2018-02-27T08:38:23.586Z,205
2018-02-27T08:39:23.563Z,220
2018-02-27T08:40:23.786Z,210
2018-02-27T08:41:23.764Z,215
2018-02-27T08:42:23.498Z,235
2018-02-27T08:43:23.457Z,235
2018-02-27T08:44:23.176Z,230
2018-02-27T08:45:23.155Z,225
2018-02-27T08:46:23.661Z,255
2018-02-27T08:47:23.615Z,240
2018-02-27T08:48:23.358Z,220
2018-02-27T08:49:23.561Z,300
2018-02-27T08:50:23.558Z,320
2018-02-27T08:51:23.531Z,310
2018-02-27T08:52:23.239Z,310
2018-02-27T08:53:23.463Z,310
2018-02-27T08:54:23.184Z,290
2018-02-27T08:55:23.150Z,270
2018-02-27T08:56:23.456Z,210
2018-02-27T08:57:23.106Z,205
2018-02-27T08:58:23.076Z,255
2018-02-27T08:59:22.803Z,270
2018-02-27T09:00:23.030Z,270
2018-02-27T09:01:22.745Z,225
2018-02-27T09:02:22.728Z,185
2018-02-27T09:03:23.223Z,200
2018-02-27T09:04:23.207Z,210
2018-02-27T09:05:22.908Z,200
2018-02-27T09:06:22.626Z,245
2018-02-27T09:07:22.861Z,300
2018-02-27T09:08:23.087Z,285
2018-02-27T09:09:22.546Z,310
2018-02-27T09:10:22.838Z,290
2018-02-27T09:11:23.014Z,270
2018-02-27T09:12:22.740Z,275
2018-02-27T09:13:22.457Z,340
2018-02-27T09:14:22.679Z,345
2018-02-27T09:15:22.397Z,315
2018-02-27T09:16:22.630Z,380
2018-02-27T09:17:22.604Z,350
2018-02-27T09:18:22.325Z,315
2018-02-27T09:19:22.707Z,315
2018-02-27T09:20:22.706Z,370
2018-02-27T09:21:22.516Z,350
2018-02-27T09:22:22.759Z,315
2018-02-27T09:23:22.200Z,320
2018-02-27T09:24:22.182Z,345
2018-02-27T09:25:22.688Z,335
2018-02-27T09:26:22.672Z,300
2018-02-27T09:27:22.626Z,215
2018-02-27T09:28:22.614Z,240
2018-02-27T09:29:22.315Z,255
2018-02-27T09:30:22.593Z,255
2018-02-27T09:31:22.464Z,265
2018-02-27T09:32:22.257Z,255
2018-02-27T09:33:22.221Z,230
2018-02-27T09:34:21.936Z,255
2018-02-27T09:35:22.175Z,230
2018-02-27T09:36:22.416Z,225
2018-02-27T09:37:22.125Z,190
2018-02-27T09:38:21.962Z,185
2018-02-27T09:39:22.349Z,225
2018-02-27T09:40:22.300Z,220
2018-02-27T09:41:21.818Z,260
2018-02-27T09:42:22.261Z,245
2018-02-27T09:43:21.458Z,255
2018-02-27T09:44:21.723Z,245
2018-02-27T09:45:21.676Z,270
2018-02-27T09:46:21.906Z,310
2018-02-27T09:47:21.636Z,365
2018-02-27T09:48:21.590Z,375
2018-02-27T09:49:21.830Z,395
2018-02-27T09:50:21.551Z,355
2018-02-27T09:51:21.523Z,305
2018-02-27T09:52:21.237Z,280
2018-02-27T09:53:21.729Z,265
2018-02-27T09:54:21.713Z,265
2018-02-27T09:55:21.729Z,230
2018-02-27T09:56:21.660Z,205
2018-02-27T09:57:21.376Z,195
2018-02-27T09:58:21.872Z,185
2018-02-27T09:59:21.072Z,180
2018-02-27T10:00:21.562Z,170
2018-02-27T10:01:21.539Z,170
2018-02-27T10:02:21.264Z,165
2018-02-27T10:03:21.498Z,170
2018-02-27T10:04:20.956Z,170
2018-02-27T10:05:21.711Z,175
2018-02-27T10:06:21.796Z,175
2018-02-27T10:07:21.141Z,175
2018-02-27T10:08:21.111Z,185
2018-02-27T10:09:21.090Z,190
2018-02-27T10:10:21.062Z,180
2018-02-27T10:11:21.296Z,175
2018-02-27T10:12:21.270Z,175
2018-02-27T10:13:21.002Z,175
2018-02-27T10:14:21.228Z,180
2018-02-27T10:15:21.207Z,190
2018-02-27T10:16:21.431Z,205
2018-02-27T10:17:20.960Z,230
2018-02-27T10:18:21.138Z,230
2018-02-27T10:19:21.109Z,185
2018-02-27T10:20:20.612Z,200
2018-02-27T10:21:21.313Z,210
2018-02-27T10:22:20.825Z,180
2018-02-27T10:23:21.276Z,175
2018-02-27T10:24:21.032Z,175
2018-02-27T10:25:20.964Z,175
2018-02-27T10:26:21.005Z,180
2018-02-27T10:27:20.918Z,185
2018-02-27T10:28:20.375Z,205
2018-02-27T10:29:20.642Z,225
2018-02-27T10:30:20.851Z,210
2018-02-27T10:31:20.305Z,205
2018-02-27T10:32:21.046Z,190
2018-02-27T10:33:21.035Z,190
2018-02-27T10:34:21.004Z,190
2018-02-27T10:35:20.730Z,200
2018-02-27T10:36:20.697Z,200
2018-02-27T10:37:20.668Z,190
2018-02-27T10:38:20.139Z,220
2018-02-27T10:39:20.361Z,220
2018-02-27T10:40:20.876Z,195
2018-02-27T10:41:20.840Z,190
2018-02-27T10:42:20.294Z,210
2018-02-27T10:43:20.533Z,245
2018-02-27T10:44:20.772Z,230
2018-02-27T10:45:20.818Z,210
2018-02-27T10:46:20.745Z,205
2018-02-27T10:47:20.439Z,185
2018-02-27T10:48:20.154Z,170
2018-02-27T10:49:20.398Z,160
2018-02-27T10:50:20.104Z,140
2018-02-27T10:51:20.080Z,140
2018-02-27T10:52:20.584Z,145
2018-02-27T10:53:20.552Z,150
2018-02-27T10:54:20.527Z,160
2018-02-27T10:55:20.246Z,175
2018-02-27T10:56:20.482Z,175
2018-02-27T10:57:20.016Z,170
2018-02-27T10:58:20.435Z,150
2018-02-27T10:59:19.891Z,175
2018-02-27T11:00:20.388Z,180
2018-02-27T11:01:20.104Z,175
2018-02-27T11:02:20.346Z,170
2018-02-27T11:03:19.801Z,150
2018-02-27T11:04:19.513Z,170
2018-02-27T11:05:19.746Z,160
2018-02-27T11:06:19.723Z,155
2018-02-27T11:07:19.969Z,145
2018-02-27T11:08:19.682Z,165
2018-02-27T11:09:20.168Z,165
2018-02-27T11:10:19.892Z,170
2018-02-27T11:11:19.865Z,150
2018-02-27T11:12:19.584Z,145
2018-02-27T11:13:20.074Z,160
2018-02-27T11:14:20.048Z,165
2018-02-27T11:15:19.771Z,155
2018-02-27T11:16:19.753Z,145
2018-02-27T11:17:19.470Z,170
2018-02-27T11:18:19.700Z,170
2018-02-27T11:19:19.672Z,170
2018-02-27T11:20:19.657Z,170
2018-02-27T11:21:19.109Z,175
2018-02-27T11:22:19.612Z,180
2018-02-27T11:23:19.593Z,170
2018-02-27T11:24:19.558Z,140
2018-02-27T11:25:19.795Z,160
2018-02-27T11:26:19.249Z,160
2018-02-27T11:27:19.229Z,170
2018-02-27T11:28:19.720Z,180
2018-02-27T11:29:19.440Z,190
2018-02-27T11:30:19.263Z,195
2018-02-27T11:31:19.666Z,195
2018-02-27T11:32:19.376Z,185
2018-02-27T11:33:19.605Z,170
2018-02-27T11:34:19.064Z,170
2018-02-27T11:35:19.047Z,175
2018-02-27T11:36:19.562Z,175
2018-02-27T11:37:19.249Z,165
2018-02-27T11:38:19.482Z,165
2018-02-27T11:39:19.200Z,165
2018-02-27T11:40:19.442Z,165
2018-02-27T11:41:18.903Z,160
2018-02-27T11:42:19.391Z,170
2018-02-27T11:43:19.375Z,165
2018-02-27T11:44:19.084Z,165
2018-02-27T11:45:19.328Z,160
2018-02-27T11:46:19.033Z,160
2018-02-27T11:47:19.016Z,155
2018-02-27T11:48:18.745Z,155
2018-02-27T11:49:18.990Z,155
2018-02-27T11:50:19.205Z,160
2018-02-27T11:51:19.175Z,155
2018-02-27T11:52:18.913Z,160
2018-02-27T11:53:19.135Z,160
2018-02-27T11:54:18.852Z,160
2018-02-27T11:55:19.082Z,155
2018-02-27T11:56:19.069Z,155
2018-02-27T11:57:19.056Z,155
2018-02-27T11:58:19.028Z,155
2018-02-27T11:59:18.737Z,155
2018-02-27T12:00:18.712Z,150
2018-02-27T12:01:18.429Z,150
2018-02-27T12:02:18.943Z,150
2018-02-27T12:03:18.905Z,150
2018-02-27T12:04:18.614Z,150
2018-02-27T12:05:18.077Z,150
2018-02-27T12:06:18.314Z,155
2018-02-27T12:07:18.808Z,150
2018-02-27T12:08:18.865Z,150
2018-02-27T12:09:17.724Z,150
2018-02-27T12:10:18.478Z,150
2018-02-27T12:11:18.458Z,150
2018-02-27T12:12:18.425Z,145
2018-02-27T12:13:17.890Z,145
2018-02-27T12:14:18.383Z,140
2018-02-27T12:15:17.840Z,130
2018-02-27T12:16:18.596Z,140
2018-02-27T12:17:18.311Z,145
2018-02-27T12:18:18.296Z,145
2018-02-27T12:19:18.268Z,145
2018-02-27T12:20:18.505Z,145
2018-02-27T12:21:18.487Z,145
2018-02-27T12:22:18.457Z,150
2018-02-27T12:23:18.175Z,150
2018-02-27T12:24:18.412Z,150
2018-02-27T12:25:18.394Z,150
2018-02-27T12:26:18.108Z,140
2018-02-27T12:27:17.827Z,140
2018-02-27T12:28:18.330Z,140
2018-02-27T12:29:18.173Z,140
2018-02-27T12:30:18.575Z,140
2018-02-27T12:31:17.743Z,145
2018-02-27T12:32:17.717Z,135
2018-02-27T12:33:17.952Z,140
2018-02-27T12:34:18.180Z,145
2018-02-27T12:35:18.158Z,140
2018-02-27T12:36:18.134Z,145
2018-02-27T12:37:18.115Z,150
2018-02-27T12:38:18.092Z,150
2018-02-27T12:39:18.066Z,150
2018-02-27T12:40:17.788Z,155
2018-02-27T12:41:17.247Z,170
2018-02-27T12:42:17.488Z,175
2018-02-27T12:43:17.984Z,175
2018-02-27T12:44:17.177Z,175
2018-02-27T12:45:17.669Z,140
2018-02-27T12:46:17.649Z,140
2018-02-27T12:47:17.679Z,150
2018-02-27T12:48:17.864Z,155
2018-02-27T12:49:17.061Z,135
2018-02-27T12:50:17.571Z,140
2018-02-27T12:51:17.534Z,155
2018-02-27T12:52:17.513Z,160
2018-02-27T12:53:17.489Z,150
2018-02-27T12:54:17.471Z,140
2018-02-27T12:55:17.454Z,140
2018-02-27T12:56:17.427Z,140
2018-02-27T12:57:17.660Z,140
2018-02-27T12:58:17.456Z,140
2018-02-27T12:59:16.579Z,150
2018-02-27T13:00:17.070Z,130
2018-02-27T13:01:17.312Z,125
2018-02-27T13:02:17.286Z,125
2018-02-27T13:03:17.264Z,125
2018-02-27T13:04:17.288Z,135
2018-02-27T13:05:16.710Z,130
2018-02-27T13:06:17.447Z,135
2018-02-27T13:07:17.169Z,135
2018-02-27T13:08:17.140Z,125
2018-02-27T13:09:17.127Z,135
2018-02-27T13:10:17.104Z,130
2018-02-27T13:11:17.116Z,130
2018-02-27T13:12:17.055Z,130
2018-02-27T13:13:17.313Z,130
2018-02-27T13:14:17.061Z,130
2018-02-27T13:15:17.250Z,130
2018-02-27T13:16:16.449Z,130
2018-02-27T13:17:16.939Z,130
2018-02-27T13:18:16.923Z,130
2018-02-27T13:19:17.290Z,125
2018-02-27T13:20:16.622Z,130
2018-02-27T13:21:16.852Z,130
2018-02-27T13:22:16.824Z,135
2018-02-27T13:23:16.296Z,135
2018-02-27T13:24:16.784Z,130
2018-02-27T13:25:16.776Z,130
2018-02-27T13:26:17.213Z,130
2018-02-27T13:27:16.733Z,130
2018-02-27T13:28:16.684Z,130
2018-02-27T13:29:16.677Z,130
2018-02-27T13:30:16.907Z,130
2018-02-27T13:31:16.360Z,130
2018-02-27T13:32:16.086Z,130
2018-02-27T13:33:16.325Z,135
2018-02-27T13:34:16.823Z,135
2018-02-27T13:35:16.530Z,130
2018-02-27T13:36:16.766Z,130
2018-02-27T13:37:16.751Z,130
2018-02-27T13:38:16.490Z,125
2018-02-27T13:39:16.451Z,125
2018-02-27T13:40:16.418Z,125
2018-02-27T13:41:16.398Z,130
2018-02-27T13:42:16.373Z,130
2018-02-27T13:43:16.361Z,130
2018-02-27T13:44:16.332Z,130
2018-02-27T13:45:16.306Z,130
2018-02-27T13:46:16.547Z,130
2018-02-27T13:47:16.524Z,130
2018-02-27T13:48:16.499Z,130
2018-02-27T13:49:16.307Z,130
2018-02-27T13:50:16.209Z,130
2018-02-27T13:51:16.178Z,130
2018-02-27T13:52:16.520Z,125
2018-02-27T13:53:16.127Z,125
2018-02-27T13:54:16.106Z,130
2018-02-27T13:55:16.341Z,125
2018-02-27T13:56:16.063Z,130
2018-02-27T13:57:16.033Z,125
2018-02-27T13:58:16.011Z,125
2018-02-27T13:59:16.000Z,125
2018-02-27T14:00:15.965Z,125
2018-02-27T14:01:15.947Z,125
2018-02-27T14:02:16.187Z,125
2018-02-27T14:03:15.897Z,125
2018-02-27T14:04:15.881Z,125
2018-02-27T14:05:15.856Z,125
2018-02-27T14:06:15.572Z,125
2018-02-27T14:07:16.076Z,125
2018-02-27T14:08:15.793Z,125
2018-02-27T14:09:15.510Z,125
2018-02-27T14:10:15.742Z,125
2018-02-27T14:11:15.457Z,125
2018-02-27T14:12:15.700Z,130
2018-02-27T14:13:15.157Z,130